createdAt,value
2023-09-08T00:00:40.098Z,15.54
2023-09-08T00:03:07.680Z,15.61
2023-09-08T00:05:35.474Z,15.61
2023-09-08T00:08:03.093Z,15.55
2023-09-08T00:10:30.592Z,15.55
2023-09-08T00:12:58.136Z,15.60
2023-09-08T00:15:25.622Z,15.54
2023-09-08T00:17:52.862Z,15.50
2023-09-08T00:20:20.207Z,15.48
2023-09-08T00:22:47.491Z,15.45
2023-09-08T00:25:15.106Z,15.45
2023-09-08T00:27:42.785Z,15.43
2023-09-08T00:30:10.561Z,15.46
2023-09-08T00:32:38.861Z,15.41
2023-09-08T00:35:12.020Z,15.43
2023-09-08T00:37:39.387Z,15.48
2023-09-08T00:40:09.131Z,15.46
2023-09-08T00:42:37.132Z,15.41
2023-09-08T00:45:05.228Z,15.38
2023-09-08T00:47:32.933Z,15.37
2023-09-08T00:50:00.252Z,15.45
2023-09-08T00:52:32.342Z,15.49
2023-09-08T00:55:00.269Z,15.41
2023-09-08T00:57:27.582Z,15.46
2023-09-08T00:59:55.129Z,15.43
2023-09-08T01:02:23.584Z,15.45
2023-09-08T01:04:51.647Z,15.48
2023-09-08T01:07:20.185Z,15.47
2023-09-08T01:09:48.025Z,15.53
2023-09-08T01:12:16.426Z,15.38
2023-09-08T01:14:43.745Z,15.39
2023-09-08T01:17:11.296Z,15.33
2023-09-08T01:19:39.257Z,15.37
2023-09-08T01:22:16.842Z,15.36
2023-09-08T01:25:08.062Z,15.39
2023-09-08T01:27:36.497Z,15.40
2023-09-08T01:30:05.610Z,15.47
2023-09-08T01:32:33.657Z,15.40
2023-09-08T01:35:01.058Z,15.43
2023-09-08T01:37:28.468Z,15.44
2023-09-08T01:39:55.748Z,15.42
2023-09-08T01:42:23.385Z,15.43
2023-09-08T01:44:50.909Z,15.47
2023-09-08T01:47:18.384Z,15.41
2023-09-08T01:49:45.756Z,15.41
2023-09-08T01:52:13.209Z,15.41
2023-09-08T01:54:40.602Z,15.43
2023-09-08T01:57:08.031Z,15.40
2023-09-08T01:59:35.901Z,15.42
2023-09-08T02:02:04.498Z,15.43
2023-09-08T02:04:32.567Z,15.48
2023-09-08T02:06:59.995Z,15.47
2023-09-08T02:09:33.725Z,15.49
2023-09-08T02:12:01.725Z,15.40
2023-09-08T02:14:29.005Z,15.46
2023-09-08T02:16:57.539Z,15.50
2023-09-08T02:19:25.157Z,15.42
2023-09-08T02:21:52.647Z,15.42
2023-09-08T02:24:20.010Z,15.42
2023-09-08T02:26:47.767Z,15.38
2023-09-08T02:29:15.359Z,15.33
2023-09-08T02:31:42.954Z,15.34
2023-09-08T02:34:10.482Z,15.34
2023-09-08T02:36:37.983Z,15.38
2023-09-08T02:39:05.651Z,15.31
2023-09-08T02:41:32.973Z,15.36
2023-09-08T02:44:00.313Z,15.36
2023-09-08T02:46:27.607Z,15.34
2023-09-08T02:48:54.977Z,15.33
2023-09-08T02:51:22.369Z,15.31
2023-09-08T02:53:50.044Z,15.29
2023-09-08T02:56:17.387Z,15.27
2023-09-08T02:58:45.500Z,15.29
2023-09-08T03:01:14.738Z,15.30
2023-09-08T03:03:42.746Z,15.33
2023-09-08T03:06:10.794Z,15.28
2023-09-08T03:08:38.528Z,15.31
2023-09-08T03:11:06.691Z,15.32
2023-09-08T03:13:35.385Z,15.33
2023-09-08T03:16:03.924Z,15.38
2023-09-08T03:18:31.276Z,15.30
2023-09-08T03:20:58.549Z,15.28
2023-09-08T03:23:25.912Z,15.27
2023-09-08T03:25:53.703Z,15.30
2023-09-08T03:28:21.253Z,15.31
2023-09-08T03:30:48.586Z,15.31
2023-09-08T03:33:16.077Z,15.25
2023-09-08T03:35:43.511Z,15.28
2023-09-08T03:38:10.823Z,15.25
2023-09-08T03:40:38.971Z,15.27
2023-09-08T03:43:06.375Z,15.32
2023-09-08T03:45:34.103Z,15.32
2023-09-08T03:48:01.734Z,15.32
2023-09-08T03:50:29.353Z,15.31
2023-09-08T03:52:57.258Z,15.32
2023-09-08T03:55:24.786Z,15.31
2023-09-08T03:57:52.092Z,15.27
2023-09-08T04:00:23.203Z,15.35
2023-09-08T04:02:50.782Z,15.38
2023-09-08T04:05:18.576Z,15.36
2023-09-08T04:07:46.859Z,15.38
2023-09-08T04:10:14.728Z,15.35
2023-09-08T04:12:42.223Z,15.39
2023-09-08T04:15:10.262Z,15.39
2023-09-08T04:17:38.465Z,15.39
2023-09-08T04:20:06.479Z,15.40
2023-09-08T04:22:34.164Z,15.42
2023-09-08T04:25:02.194Z,15.48
2023-09-08T04:27:29.815Z,15.43
2023-09-08T04:29:57.431Z,15.49
2023-09-08T04:32:24.974Z,15.46
2023-09-08T04:34:52.380Z,15.47
2023-09-08T04:37:19.669Z,15.47
2023-09-08T04:39:47.257Z,15.49
2023-09-08T04:42:14.870Z,15.50
2023-09-08T04:44:42.380Z,15.54
2023-09-08T04:47:09.724Z,15.55
2023-09-08T04:49:38.235Z,15.57
2023-09-08T04:52:05.785Z,15.53
2023-09-08T04:54:33.345Z,15.60
2023-09-08T04:57:16.121Z,15.59
2023-09-08T04:59:48.492Z,15.60
2023-09-08T05:02:16.263Z,15.61
2023-09-08T05:04:43.744Z,15.57
2023-09-08T05:07:11.468Z,15.60
2023-09-08T05:09:39.035Z,15.64
2023-09-08T05:12:06.931Z,15.66
2023-09-08T05:14:34.536Z,15.72
2023-09-08T05:17:02.085Z,15.70
2023-09-08T05:19:29.680Z,15.68
2023-09-08T05:21:57.256Z,15.69
2023-09-08T05:24:26.932Z,15.71
2023-09-08T05:26:54.465Z,15.76
2023-09-08T05:29:21.689Z,15.76
2023-09-08T05:31:48.996Z,15.76
2023-09-08T05:34:16.367Z,15.75
2023-09-08T05:36:43.938Z,15.79
2023-09-08T05:39:11.795Z,15.78
2023-09-08T05:41:39.349Z,15.81
2023-09-08T05:44:06.713Z,15.82
2023-09-08T05:46:34.252Z,15.81
2023-09-08T05:49:01.888Z,15.80
2023-09-08T05:51:29.503Z,15.80
2023-09-08T05:53:57.285Z,15.84
2023-09-08T05:56:30.996Z,15.83
2023-09-08T05:58:58.539Z,15.84
2023-09-08T06:01:26.329Z,15.84
2023-09-08T06:03:55.889Z,15.84
2023-09-08T06:06:23.715Z,15.83
2023-09-08T06:08:51.062Z,15.80
2023-09-08T06:11:18.747Z,15.84
2023-09-08T06:13:46.381Z,15.85
2023-09-08T06:16:13.762Z,15.84
2023-09-08T06:18:41.444Z,15.86
2023-09-08T06:21:08.900Z,15.86
2023-09-08T06:23:37.810Z,15.87
2023-09-08T06:26:05.443Z,15.89
2023-09-08T06:28:33.279Z,15.90
2023-09-08T06:31:00.977Z,15.93
2023-09-08T06:33:28.757Z,15.95
2023-09-08T06:35:56.363Z,15.97
2023-09-08T06:38:23.746Z,15.97
2023-09-08T06:40:54.071Z,15.97
2023-09-08T06:43:21.402Z,15.96
2023-09-08T06:45:50.163Z,15.96
2023-09-08T06:48:17.954Z,15.99
2023-09-08T06:50:45.641Z,16.01
2023-09-08T06:53:13.938Z,16.04
2023-09-08T06:55:44.705Z,16.02
2023-09-08T06:58:15.853Z,16.00
2023-09-08T07:00:44.011Z,16.03
2023-09-08T07:03:11.727Z,16.03
2023-09-08T07:05:40.524Z,16.05
2023-09-08T07:08:07.984Z,16.06
2023-09-08T07:10:35.417Z,16.08
2023-09-08T07:13:03.118Z,16.11
2023-09-08T07:15:30.936Z,16.16
2023-09-08T07:17:58.275Z,16.17
2023-09-08T07:20:25.864Z,16.21
2023-09-08T07:22:53.575Z,16.23
2023-09-08T07:25:21.514Z,16.34
2023-09-08T07:27:49.130Z,16.35
2023-09-08T07:30:16.527Z,16.35
2023-09-08T07:32:43.946Z,16.35
2023-09-08T07:35:15.626Z,16.32
2023-09-08T07:37:43.127Z,16.42
2023-09-08T07:40:11.125Z,16.63
2023-09-08T07:42:38.868Z,16.80
2023-09-08T07:45:06.775Z,16.79
2023-09-08T07:47:34.064Z,16.79
2023-09-08T07:50:17.749Z,16.97
2023-09-08T07:52:45.304Z,17.20
2023-09-08T07:55:12.927Z,17.37
2023-09-08T07:57:40.636Z,17.51
2023-09-08T08:00:11.637Z,17.49
2023-09-08T08:02:41.143Z,17.47
2023-09-08T08:05:10.224Z,17.45
2023-09-08T08:07:37.711Z,17.46
2023-09-08T08:10:06.321Z,17.38
2023-09-08T08:12:53.609Z,17.20
2023-09-08T08:15:38.717Z,17.18
2023-09-08T08:18:06.989Z,17.31
2023-09-08T08:20:37.591Z,17.38
2023-09-08T08:23:05.552Z,17.53
2023-09-08T08:25:33.734Z,17.56
2023-09-08T08:28:02.445Z,17.55
2023-09-08T08:30:30.196Z,17.56
2023-09-08T08:32:57.770Z,17.54
2023-09-08T08:35:25.511Z,17.58
2023-09-08T08:37:53.209Z,17.55
2023-09-08T08:40:20.795Z,17.54
2023-09-08T08:42:48.209Z,17.57
2023-09-08T08:45:17.300Z,17.63
2023-09-08T08:47:44.930Z,17.64
2023-09-08T08:50:13.607Z,17.58
2023-09-08T08:52:41.646Z,17.56
2023-09-08T08:55:09.559Z,17.59
2023-09-08T08:57:40.574Z,17.62
2023-09-08T09:00:12.294Z,17.64
2023-09-08T09:02:45.161Z,17.64
2023-09-08T09:05:15.157Z,17.60
2023-09-08T09:07:43.037Z,17.57
2023-09-08T09:10:10.533Z,17.57
2023-09-08T09:12:40.977Z,17.58
2023-09-08T09:15:12.668Z,17.63
2023-09-08T09:17:40.844Z,17.67
2023-09-08T09:20:18.900Z,17.67
2023-09-08T09:22:46.326Z,17.58
2023-09-08T09:25:23.827Z,17.58
2023-09-08T09:27:57.511Z,17.56
2023-09-08T09:30:26.015Z,17.56
2023-09-08T09:33:00.412Z,17.55
2023-09-08T09:35:47.019Z,17.57
2023-09-08T09:38:15.007Z,17.56
2023-09-08T09:40:42.642Z,17.57
2023-09-08T09:43:11.209Z,17.61
2023-09-08T09:45:39.362Z,17.59
2023-09-08T09:48:07.438Z,17.59
2023-09-08T09:50:37.796Z,17.58
2023-09-08T09:53:10.759Z,17.59
2023-09-08T09:55:42.142Z,17.69
2023-09-08T09:58:11.830Z,17.70
2023-09-08T10:00:41.708Z,17.74
2023-09-08T10:03:09.887Z,17.76
2023-09-08T10:05:38.259Z,17.74
2023-09-08T10:08:05.967Z,17.72
2023-09-08T10:10:33.904Z,17.77
2023-09-08T10:13:04.212Z,17.79
2023-09-08T10:15:32.133Z,17.72
2023-09-08T10:18:01.386Z,17.66
2023-09-08T10:20:29.956Z,17.62
2023-09-08T10:23:05.273Z,17.60
2023-09-08T10:25:36.567Z,17.61
2023-09-08T10:28:05.101Z,17.64
2023-09-08T10:30:32.872Z,17.63
2023-09-08T10:33:00.788Z,17.61
2023-09-08T10:35:29.181Z,17.61
2023-09-08T10:38:28.680Z,17.60
2023-09-08T10:41:14.617Z,17.60
2023-09-08T10:43:43.712Z,17.59
2023-09-08T10:46:11.779Z,17.58
2023-09-08T10:48:45.212Z,17.56
2023-09-08T10:51:15.968Z,17.54
2023-09-08T10:53:43.532Z,17.58
2023-09-08T10:56:17.815Z,17.64
2023-09-08T10:58:50.001Z,17.68
2023-09-08T11:01:18.700Z,17.65
2023-09-08T11:03:48.790Z,17.63
2023-09-08T11:06:17.298Z,17.63
2023-09-08T11:08:45.491Z,17.61
2023-09-08T11:11:13.522Z,17.62
2023-09-08T11:13:41.190Z,17.64
2023-09-08T11:16:08.791Z,17.69
2023-09-08T11:18:37.325Z,17.81
2023-09-08T11:21:08.949Z,17.90
2023-09-08T11:23:36.452Z,17.97
2023-09-08T11:26:04.226Z,18.03
2023-09-08T11:28:31.884Z,18.07
2023-09-08T11:30:59.678Z,18.05
2023-09-08T11:33:27.339Z,18.00
2023-09-08T11:35:58.515Z,17.99
2023-09-08T11:38:27.744Z,17.96
2023-09-08T11:40:56.309Z,17.98
2023-09-08T11:43:24.050Z,17.99
2023-09-08T11:45:52.021Z,18.00
2023-09-08T11:48:20.457Z,17.98
2023-09-08T11:50:47.760Z,17.96
2023-09-08T11:53:19.812Z,17.94
2023-09-08T11:55:48.924Z,17.90
2023-09-08T11:58:19.212Z,17.91
2023-09-08T12:00:49.034Z,17.93
2023-09-08T12:03:17.557Z,17.95
2023-09-08T12:05:46.186Z,17.95
2023-09-08T12:08:14.029Z,17.98
2023-09-08T12:10:41.871Z,18.00
2023-09-08T12:13:10.082Z,18.01
2023-09-08T12:15:38.739Z,18.04
2023-09-08T12:18:07.484Z,18.03
2023-09-08T12:20:35.437Z,18.02
2023-09-08T12:23:04.092Z,18.03
2023-09-08T12:25:36.212Z,18.04
2023-09-08T12:28:05.457Z,18.04
2023-09-08T12:30:34.306Z,18.00
2023-09-08T12:33:02.672Z,17.96
2023-09-08T12:35:32.409Z,17.98
2023-09-08T12:38:03.785Z,18.00
2023-09-08T12:40:31.914Z,17.99
2023-09-08T12:43:03.586Z,18.00
2023-09-08T12:45:41.466Z,18.05
2023-09-08T12:48:08.871Z,18.08
2023-09-08T12:50:36.161Z,18.11
2023-09-08T12:53:03.809Z,18.13
2023-09-08T12:55:31.432Z,18.19
2023-09-08T12:57:59.050Z,18.21
2023-09-08T13:00:26.862Z,18.21
2023-09-08T13:02:54.226Z,18.20
2023-09-08T13:05:21.621Z,18.19
2023-09-08T13:07:48.906Z,18.12
2023-09-08T13:10:16.386Z,18.08
2023-09-08T13:12:43.996Z,18.05
2023-09-08T13:15:11.556Z,18.05
2023-09-08T13:17:39.003Z,18.03
2023-09-08T13:20:07.684Z,18.01
2023-09-08T13:22:35.550Z,17.98
2023-09-08T13:25:02.944Z,17.97
2023-09-08T13:27:30.219Z,17.96
2023-09-08T13:30:14.287Z,17.96
2023-09-08T13:32:42.297Z,17.96
2023-09-08T13:35:09.996Z,17.98
2023-09-08T13:37:39.482Z,17.97
2023-09-08T13:40:08.198Z,17.95
2023-09-08T13:42:36.634Z,17.95
2023-09-08T13:45:04.906Z,17.95
2023-09-08T13:47:33.540Z,17.95
2023-09-08T13:50:05.366Z,17.95
2023-09-08T13:52:37.900Z,17.97
2023-09-08T13:55:30.168Z,17.95
2023-09-08T13:57:55.920Z,17.96
2023-09-08T14:00:25.066Z,17.95
2023-09-08T14:05:28.377Z,17.96
2023-09-08T14:08:06.165Z,17.95
2023-09-08T14:10:41.514Z,17.95
2023-09-08T14:13:12.943Z,17.95
2023-09-08T14:15:40.590Z,17.94
2023-09-08T14:18:07.959Z,17.95
2023-09-08T14:20:35.321Z,17.95
2023-09-08T14:23:03.501Z,17.94
2023-09-08T14:25:31.134Z,17.94
2023-09-08T14:28:01.146Z,17.93
2023-09-08T14:30:29.224Z,17.92
2023-09-08T14:32:56.890Z,17.92
2023-09-08T14:35:24.519Z,17.94
2023-09-08T14:37:52.274Z,17.94
2023-09-08T14:40:19.745Z,17.95
2023-09-08T14:42:47.360Z,17.94
2023-09-08T14:45:14.996Z,17.93
2023-09-08T14:47:43.044Z,17.93
2023-09-08T14:50:10.891Z,17.92
2023-09-08T14:52:38.477Z,17.93
2023-09-08T14:55:05.863Z,17.93
2023-09-08T14:57:33.275Z,17.93
2023-09-08T15:00:01.116Z,17.92
2023-09-08T15:02:28.910Z,17.93
2023-09-08T15:04:57.450Z,17.91
2023-09-08T15:07:25.066Z,17.91
2023-09-08T15:09:52.426Z,17.90
2023-09-08T15:12:19.798Z,17.89
2023-09-08T15:14:47.158Z,17.88
2023-09-08T15:17:14.392Z,17.86
2023-09-08T15:19:41.665Z,17.86
2023-09-08T15:22:09.158Z,17.85
2023-09-08T15:24:36.453Z,17.85
2023-09-08T15:27:04.445Z,17.85
2023-09-08T15:29:32.152Z,17.87
2023-09-08T15:31:59.523Z,17.86
2023-09-08T15:34:27.616Z,17.87
2023-09-08T15:36:55.120Z,17.88
2023-09-08T15:39:22.555Z,17.87
2023-09-08T15:41:49.838Z,17.86
2023-09-08T15:44:18.291Z,17.83
2023-09-08T15:46:47.330Z,17.82
2023-09-08T15:49:15.031Z,17.80
2023-09-08T15:51:42.661Z,17.77
2023-09-08T15:54:10.082Z,17.76
2023-09-08T15:56:37.485Z,17.78
2023-09-08T15:59:05.124Z,17.78
2023-09-08T16:01:32.918Z,17.80
2023-09-08T16:04:00.822Z,17.79
2023-09-08T16:06:28.674Z,17.79
2023-09-08T16:08:56.694Z,17.80
2023-09-08T16:11:24.001Z,17.81
2023-09-08T16:13:51.326Z,17.81
2023-09-08T16:16:18.685Z,17.81
2023-09-08T16:18:46.347Z,17.79
2023-09-08T16:21:13.909Z,17.79
2023-09-08T16:23:41.675Z,17.78
2023-09-08T16:26:09.541Z,17.76
2023-09-08T16:28:37.149Z,17.75
2023-09-08T16:31:05.576Z,17.75
2023-09-08T16:33:33.157Z,17.74
2023-09-08T16:36:00.535Z,17.73
2023-09-08T16:38:27.945Z,17.73
2023-09-08T16:40:55.419Z,17.72
2023-09-08T16:43:22.793Z,17.72
2023-09-08T16:45:50.055Z,17.70
2023-09-08T16:48:17.547Z,17.69
2023-09-08T16:50:45.358Z,17.67
2023-09-08T16:53:13.158Z,17.66
2023-09-08T16:55:40.751Z,17.66
2023-09-08T16:58:08.267Z,17.65
2023-09-08T17:00:35.514Z,17.63
2023-09-08T17:03:03.800Z,17.63
2023-09-08T17:05:31.166Z,17.60
2023-09-08T17:07:58.518Z,17.59
2023-09-08T17:10:25.896Z,17.56
2023-09-08T17:12:53.349Z,17.53
2023-09-08T17:15:20.709Z,17.51
2023-09-08T17:17:48.111Z,17.45
2023-09-08T17:20:15.515Z,17.44
2023-09-08T17:22:42.897Z,17.43
2023-09-08T17:25:12.103Z,17.41
2023-09-08T17:27:42.128Z,17.38
2023-09-08T17:30:09.667Z,17.37
2023-09-08T17:32:37.045Z,17.32
2023-09-08T17:35:05.080Z,17.32
2023-09-08T17:37:32.414Z,17.36
2023-09-08T17:40:00.505Z,17.27
2023-09-08T17:42:28.067Z,17.21
2023-09-08T17:44:55.633Z,17.18
2023-09-08T17:47:23.155Z,17.18
2023-09-08T17:49:50.631Z,17.19
2023-09-08T17:52:17.892Z,17.16
2023-09-08T17:54:45.170Z,17.15
2023-09-08T17:57:12.682Z,17.13
2023-09-08T17:59:40.042Z,17.09
2023-09-08T18:02:07.297Z,17.10
2023-09-08T18:04:35.644Z,17.10
2023-09-08T18:07:04.688Z,17.05
2023-09-08T18:09:32.584Z,17.06
2023-09-08T18:12:00.164Z,17.10
2023-09-08T18:14:27.545Z,17.04
2023-09-08T18:16:54.878Z,17.04
2023-09-08T18:19:22.454Z,17.02
2023-09-08T18:21:50.165Z,16.99
2023-09-08T18:24:17.723Z,17.03
2023-09-08T18:26:45.134Z,17.02
2023-09-08T18:29:12.418Z,16.97
2023-09-08T18:31:42.076Z,16.97
2023-09-08T18:34:10.067Z,16.92
2023-09-08T18:36:37.670Z,16.97
2023-09-08T18:39:05.717Z,16.93
2023-09-08T18:41:33.337Z,16.87
2023-09-08T18:44:00.566Z,16.90
2023-09-08T18:46:27.910Z,16.90
2023-09-08T18:48:55.488Z,16.95
2023-09-08T18:51:23.148Z,16.90
2023-09-08T18:53:50.645Z,16.87
2023-09-08T18:56:19.414Z,16.92
2023-09-08T18:58:47.458Z,16.86
2023-09-08T19:01:14.849Z,16.83
2023-09-08T19:03:42.560Z,16.81
2023-09-08T19:06:12.874Z,16.82
2023-09-08T19:08:40.756Z,16.85
2023-09-08T19:11:08.298Z,16.79
2023-09-08T19:13:35.936Z,16.78
2023-09-08T19:16:03.517Z,16.76
2023-09-08T19:18:31.338Z,16.83
2023-09-08T19:20:59.067Z,16.83
2023-09-08T19:23:26.441Z,16.78
2023-09-08T19:25:54.113Z,16.78
2023-09-08T19:28:21.432Z,16.77
2023-09-08T19:30:49.399Z,16.80
2023-09-08T19:33:18.525Z,16.75
2023-09-08T19:35:46.194Z,16.75
2023-09-08T19:38:13.804Z,16.70
2023-09-08T19:40:41.171Z,16.69
2023-09-08T19:43:08.407Z,16.70
2023-09-08T19:45:38.540Z,16.73
2023-09-08T19:48:06.899Z,16.74
2023-09-08T19:50:34.605Z,16.70
2023-09-08T19:53:01.972Z,16.62
2023-09-08T19:55:29.237Z,16.60
2023-09-08T19:57:56.568Z,16.63
2023-09-08T20:00:23.818Z,16.65
2023-09-08T20:02:51.186Z,16.69
2023-09-08T20:05:18.531Z,16.62
2023-09-08T20:07:47.275Z,16.61
2023-09-08T20:10:14.669Z,16.67
2023-09-08T20:12:42.693Z,16.69
2023-09-08T20:15:10.258Z,16.66
2023-09-08T20:17:37.622Z,16.60
2023-09-08T20:20:05.919Z,16.59
2023-09-08T20:22:33.512Z,16.56
2023-09-08T20:25:01.277Z,16.53
2023-09-08T20:27:29.961Z,16.50
2023-09-08T20:29:57.336Z,16.50
2023-09-08T20:32:24.829Z,16.50
2023-09-08T20:34:52.214Z,16.48
2023-09-08T20:37:19.522Z,16.40
2023-09-08T20:39:47.120Z,16.35
2023-09-08T20:42:14.721Z,16.42
2023-09-08T20:44:42.141Z,16.30
2023-09-08T20:47:09.754Z,16.31
2023-09-08T20:49:37.288Z,16.32
2023-09-08T20:52:05.004Z,16.20
2023-09-08T20:54:34.404Z,16.25
2023-09-08T20:57:01.696Z,16.23
2023-09-08T20:59:30.021Z,16.19
2023-09-08T21:01:57.685Z,16.16
2023-09-08T21:04:25.112Z,16.17
2023-09-08T21:06:53.129Z,16.16
2023-09-08T21:09:20.989Z,16.10
2023-09-08T21:11:49.454Z,16.24
2023-09-08T21:14:17.080Z,16.21
2023-09-08T21:16:45.050Z,16.33
2023-09-08T21:19:12.391Z,16.39
2023-09-08T21:21:39.661Z,16.43
2023-09-08T21:24:07.349Z,16.37
2023-09-08T21:26:34.875Z,16.28
2023-09-08T21:29:02.407Z,16.27
2023-09-08T21:31:29.711Z,16.27
2023-09-08T21:33:57.488Z,16.23
2023-09-08T21:36:25.144Z,16.23
2023-09-08T21:38:54.524Z,16.23
2023-09-08T21:41:23.497Z,16.20
2023-09-08T21:43:50.788Z,16.17
2023-09-08T21:46:18.234Z,16.12
2023-09-08T21:48:45.601Z,16.13
2023-09-08T21:51:13.026Z,16.15
2023-09-08T21:53:40.308Z,16.17
2023-09-08T21:56:07.728Z,16.13
2023-09-08T21:58:35.164Z,16.22
2023-09-08T22:01:03.057Z,16.16
2023-09-08T22:03:32.135Z,16.12
2023-09-08T22:05:59.837Z,16.06
2023-09-08T22:08:27.143Z,16.06
2023-09-08T22:10:54.809Z,16.10
2023-09-08T22:13:22.077Z,16.04
2023-09-08T22:15:49.907Z,16.07
2023-09-08T22:18:17.645Z,16.08
2023-09-08T22:20:46.196Z,16.09
2023-09-08T22:23:13.755Z,16.22
2023-09-08T22:25:41.345Z,16.20
2023-09-08T22:28:08.915Z,16.26
2023-09-08T22:30:36.438Z,16.21
2023-09-08T22:33:04.538Z,16.24
2023-09-08T22:35:32.140Z,16.28
2023-09-08T22:37:59.470Z,16.25
2023-09-08T22:40:27.107Z,16.28
2023-09-08T22:42:54.927Z,16.23
2023-09-08T22:45:22.602Z,16.24
2023-09-08T22:47:50.312Z,16.16
2023-09-08T22:50:17.886Z,16.19
2023-09-08T22:52:45.787Z,16.20
2023-09-08T22:55:25.029Z,16.16
2023-09-08T22:57:54.661Z,16.10
2023-09-08T23:00:23.359Z,16.14
2023-09-08T23:02:51.365Z,16.14
2023-09-08T23:05:19.024Z,16.05
2023-09-08T23:07:46.387Z,16.06
2023-09-08T23:10:14.040Z,16.05
2023-09-08T23:12:41.859Z,16.02
2023-09-08T23:15:10.985Z,16.05
2023-09-08T23:17:39.184Z,16.01
2023-09-08T23:20:15.924Z,15.99
2023-09-08T23:22:44.070Z,15.99
2023-09-08T23:25:11.862Z,16.04
2023-09-08T23:27:39.455Z,16.05
2023-09-08T23:30:07.305Z,15.94
2023-09-08T23:32:34.659Z,15.99
2023-09-08T23:35:02.093Z,16.00
2023-09-08T23:37:29.353Z,15.99
2023-09-08T23:39:56.859Z,15.93
2023-09-08T23:42:24.123Z,15.88
2023-09-08T23:44:51.628Z,15.88
2023-09-08T23:47:18.921Z,15.96
2023-09-08T23:49:48.817Z,15.87
2023-09-08T23:52:16.471Z,15.88
2023-09-08T23:54:44.023Z,15.83
2023-09-08T23:57:11.649Z,15.83
2023-09-08T23:59:39.162Z,15.81
